Clarksville, Indiana
Current Conditions -  °F | °C
As of 10:53 AM on Wednesday 28 Jan 2015 (Local Time) from KLOU Reporting Station
Clear Clear  
Wind Chill: 21°   Ceiling: Unl
Heat Index: 28°   Visibility: 10mi
Dew Point: 14°   Wind: 7mph
Humidity: 56%   Direction: 140°SE
Pressure: 30.38"   Gusts: NA
Location:  38.29°N, 85.76°W
Report Text: KLOU 281553Z 14006KT 10SM CLR M02/M10 A3038 RMK AO2 SLP293 T10221100
Loading
Personal Weather Stations






























Interactive Weather Map New forecast layout! Learn more

10-Day Weather Forecast

Advertisements
Track Severe Weather on mobile